sensor_id;sensor_type;location;lat;lon;timestamp;temperature;humidity
12013;DHT22;6065;48.138;16.402;2022-09-09T00:00:40;18.40;99.90
12013;DHT22;6065;48.138;16.402;2022-09-09T00:03:08;18.40;99.90
12013;DHT22;6065;48.138;16.402;2022-09-09T00:05:38;18.40;99.90
12013;DHT22;6065;48.138;16.402;2022-09-09T00:08:11;18.40;99.90
12013;DHT22;6065;48.138;16.402;2022-09-09T00:10:42;18.40;99.90
12013;DHT22;6065;48.138;16.402;2022-09-09T00:13:13;18.40;99.90
12013;DHT22;6065;48.138;16.402;2022-09-09T00:15:44;18.40;99.90
12013;DHT22;6065;48.138;16.402;2022-09-09T00:18:15;18.40;99.90
12013;DHT22;6065;48.138;16.402;2022-09-09T00:20:44;18.40;99.90
12013;DHT22;6065;48.138;16.402;2022-09-09T00:23:14;18.40;99.90
12013;DHT22;6065;48.138;16.402;2022-09-09T00:25:48;18.40;99.90
12013;DHT22;6065;48.138;16.402;2022-09-09T00:28:18;18.40;99.90
12013;DHT22;6065;48.138;16.402;2022-09-09T00:30:45;18.30;99.90
12013;DHT22;6065;48.138;16.402;2022-09-09T00:33:13;18.30;99.90
12013;DHT22;6065;48.138;16.402;2022-09-09T00:35:42;18.30;99.90
12013;DHT22;6065;48.138;16.402;2022-09-09T00:38:11;18.30;99.90
12013;DHT22;6065;48.138;16.402;2022-09-09T00:40:41;18.30;99.90
12013;DHT22;6065;48.138;16.402;2022-09-09T00:43:20;18.30;99.90
12013;DHT22;6065;48.138;16.402;2022-09-09T00:45:57;18.30;99.90
12013;DHT22;6065;48.138;16.402;2022-09-09T00:48:27;18.30;99.90
12013;DHT22;6065;48.138;16.402;2022-09-09T00:50:55;18.20;99.90
12013;DHT22;6065;48.138;16.402;2022-09-09T00:53:29;18.20;99.90
12013;DHT22;6065;48.138;16.402;2022-09-09T00:56:00;18.20;99.90
12013;DHT22;6065;48.138;16.402;2022-09-09T00:58:31;18.20;99.90
12013;DHT22;6065;48.138;16.402;2022-09-09T01:01:00;18.20;99.90
12013;DHT22;6065;48.138;16.402;2022-09-09T01:03:34;18.10;99.90
12013;DHT22;6065;48.138;16.402;2022-09-09T01:06:01;18.10;99.90
12013;DHT22;6065;48.138;16.402;2022-09-09T01:08:39;18.20;99.90
12013;DHT22;6065;48.138;16.402;2022-09-09T01:11:10;18.20;99.90
12013;DHT22;6065;48.138;16.402;2022-09-09T01:13:40;18.20;99.90
12013;DHT22;6065;48.138;16.402;2022-09-09T01:16:10;18.20;99.90
12013;DHT22;6065;48.138;16.402;2022-09-09T01:18:39;18.20;99.90
12013;DHT22;6065;48.138;16.402;2022-09-09T01:21:09;18.20;99.90
12013;DHT22;6065;48.138;16.402;2022-09-09T01:26:27;18.10;99.90
12013;DHT22;6065;48.138;16.402;2022-09-09T01:28:54;18.10;99.90
12013;DHT22;6065;48.138;16.402;2022-09-09T01:31:21;18.10;99.90
12013;DHT22;6065;48.138;16.402;2022-09-09T01:33:49;18.10;99.90
12013;DHT22;6065;48.138;16.402;2022-09-09T01:36:19;18.00;99.90
12013;DHT22;6065;48.138;16.402;2022-09-09T01:38:46;18.00;99.90
12013;DHT22;6065;48.138;16.402;2022-09-09T01:41:13;18.00;99.90
12013;DHT22;6065;48.138;16.402;2022-09-09T01:43:41;17.90;99.90
12013;DHT22;6065;48.138;16.402;2022-09-09T01:46:08;17.90;99.90
12013;DHT22;6065;48.138;16.402;2022-09-09T01:48:34;17.80;99.90
12013;DHT22;6065;48.138;16.402;2022-09-09T01:51:01;17.70;99.90
12013;DHT22;6065;48.138;16.402;2022-09-09T01:53:28;17.70;99.90
12013;DHT22;6065;48.138;16.402;2022-09-09T01:56:03;17.60;99.90
12013;DHT22;6065;48.138;16.402;2022-09-09T01:58:32;17.60;99.90
12013;DHT22;6065;48.138;16.402;2022-09-09T02:01:04;17.60;99.90
12013;DHT22;6065;48.138;16.402;2022-09-09T02:03:32;17.50;99.90
12013;DHT22;6065;48.138;16.402;2022-09-09T02:06:04;17.50;99.90
12013;DHT22;6065;48.138;16.402;2022-09-09T02:08:34;17.40;99.90
12013;DHT22;6065;48.138;16.402;2022-09-09T02:11:05;17.40;99.90
12013;DHT22;6065;48.138;16.402;2022-09-09T02:13:32;17.30;99.90
12013;DHT22;6065;48.138;16.402;2022-09-09T02:16:01;17.30;99.90
12013;DHT22;6065;48.138;16.402;2022-09-09T02:18:32;17.20;99.90
12013;DHT22;6065;48.138;16.402;2022-09-09T02:21:01;17.20;99.90
12013;DHT22;6065;48.138;16.402;2022-09-09T02:23:28;17.20;99.90
12013;DHT22;6065;48.138;16.402;2022-09-09T02:25:56;17.10;99.90
12013;DHT22;6065;48.138;16.402;2022-09-09T02:28:24;17.10;99.90
12013;DHT22;6065;48.138;16.402;2022-09-09T02:30:52;17.10;99.90
12013;DHT22;6065;48.138;16.402;2022-09-09T02:33:21;17.00;99.90
12013;DHT22;6065;48.138;16.402;2022-09-09T02:35:51;17.00;99.90
12013;DHT22;6065;48.138;16.402;2022-09-09T02:38:18;17.00;99.90
12013;DHT22;6065;48.138;16.402;2022-09-09T02:40:46;16.90;99.90
12013;DHT22;6065;48.138;16.402;2022-09-09T02:43:13;16.90;99.90
12013;DHT22;6065;48.138;16.402;2022-09-09T02:45:42;16.80;99.90
12013;DHT22;6065;48.138;16.402;2022-09-09T02:48:11;16.80;99.90
12013;DHT22;6065;48.138;16.402;2022-09-09T02:50:41;16.90;99.90
12013;DHT22;6065;48.138;16.402;2022-09-09T02:53:11;17.00;99.90
12013;DHT22;6065;48.138;16.402;2022-09-09T02:55:44;17.00;99.90
12013;DHT22;6065;48.138;16.402;2022-09-09T02:58:12;16.90;99.90
12013;DHT22;6065;48.138;16.402;2022-09-09T03:00:42;16.80;99.90
12013;DHT22;6065;48.138;16.402;2022-09-09T03:03:09;16.70;99.90
12013;DHT22;6065;48.138;16.402;2022-09-09T03:05:36;16.70;99.90
12013;DHT22;6065;48.138;16.402;2022-09-09T03:08:04;16.70;99.90
12013;DHT22;6065;48.138;16.402;2022-09-09T03:10:33;16.70;99.90
12013;DHT22;6065;48.138;16.402;2022-09-09T03:13:00;16.80;99.90
12013;DHT22;6065;48.138;16.402;2022-09-09T03:15:27;16.80;99.90
12013;DHT22;6065;48.138;16.402;2022-09-09T03:17:55;16.80;99.90
12013;DHT22;6065;48.138;16.402;2022-09-09T03:20:22;16.70;99.90
12013;DHT22;6065;48.138;16.402;2022-09-09T03:22:49;16.60;99.90
12013;DHT22;6065;48.138;16.402;2022-09-09T03:25:15;16.60;99.90
12013;DHT22;6065;48.138;16.402;2022-09-09T03:27:44;16.60;99.90
12013;DHT22;6065;48.138;16.402;2022-09-09T03:30:11;16.60;99.90
12013;DHT22;6065;48.138;16.402;2022-09-09T03:32:39;16.70;99.90
12013;DHT22;6065;48.138;16.402;2022-09-09T03:35:06;16.60;99.90
12013;DHT22;6065;48.138;16.402;2022-09-09T03:37:32;16.60;99.90
12013;DHT22;6065;48.138;16.402;2022-09-09T03:39:59;16.50;99.90
12013;DHT22;6065;48.138;16.402;2022-09-09T03:42:26;16.50;99.90
12013;DHT22;6065;48.138;16.402;2022-09-09T03:44:54;16.50;99.90
12013;DHT22;6065;48.138;16.402;2022-09-09T03:47:23;16.40;99.90
12013;DHT22;6065;48.138;16.402;2022-09-09T03:49:49;16.40;99.90
12013;DHT22;6065;48.138;16.402;2022-09-09T03:52:16;16.40;99.90
12013;DHT22;6065;48.138;16.402;2022-09-09T03:54:44;16.40;99.90
12013;DHT22;6065;48.138;16.402;2022-09-09T03:57:11;16.40;99.90
12013;DHT22;6065;48.138;16.402;2022-09-09T03:59:39;16.40;99.90
12013;DHT22;6065;48.138;16.402;2022-09-09T04:02:07;16.40;99.90
12013;DHT22;6065;48.138;16.402;2022-09-09T04:04:34;16.40;99.90
12013;DHT22;6065;48.138;16.402;2022-09-09T04:07:00;16.30;99.90
12013;DHT22;6065;48.138;16.402;2022-09-09T04:09:27;16.30;99.90
12013;DHT22;6065;48.138;16.402;2022-09-09T04:11:54;16.30;99.90
12013;DHT22;6065;48.138;16.402;2022-09-09T04:14:21;16.30;99.90
12013;DHT22;6065;48.138;16.402;2022-09-09T04:16:48;16.20;99.90
12013;DHT22;6065;48.138;16.402;2022-09-09T04:19:16;16.20;99.90
12013;DHT22;6065;48.138;16.402;2022-09-09T04:21:43;16.20;99.90
12013;DHT22;6065;48.138;16.402;2022-09-09T04:24:10;16.20;99.90
12013;DHT22;6065;48.138;16.402;2022-09-09T04:26:37;16.10;99.90
12013;DHT22;6065;48.138;16.402;2022-09-09T04:29:04;16.10;99.90
12013;DHT22;6065;48.138;16.402;2022-09-09T04:31:32;16.10;99.90
12013;DHT22;6065;48.138;16.402;2022-09-09T04:33:59;16.10;99.90
12013;DHT22;6065;48.138;16.402;2022-09-09T04:36:29;16.10;99.90
12013;DHT22;6065;48.138;16.402;2022-09-09T04:38:55;16.00;99.90
12013;DHT22;6065;48.138;16.402;2022-09-09T04:41:22;16.10;99.90
12013;DHT22;6065;48.138;16.402;2022-09-09T04:43:49;16.10;99.90
12013;DHT22;6065;48.138;16.402;2022-09-09T04:46:15;16.10;99.90
12013;DHT22;6065;48.138;16.402;2022-09-09T04:48:43;16.00;99.90
12013;DHT22;6065;48.138;16.402;2022-09-09T04:51:11;16.00;99.90
12013;DHT22;6065;48.138;16.402;2022-09-09T04:53:39;16.00;99.90
12013;DHT22;6065;48.138;16.402;2022-09-09T04:56:07;15.90;99.90
12013;DHT22;6065;48.138;16.402;2022-09-09T04:58:35;16.00;99.90
12013;DHT22;6065;48.138;16.402;2022-09-09T05:01:03;15.90;99.90
12013;DHT22;6065;48.138;16.402;2022-09-09T05:03:32;15.90;99.90
12013;DHT22;6065;48.138;16.402;2022-09-09T05:06:02;15.90;99.90
12013;DHT22;6065;48.138;16.402;2022-09-09T05:08:29;15.90;99.90
12013;DHT22;6065;48.138;16.402;2022-09-09T05:10:57;15.90;99.90
12013;DHT22;6065;48.138;16.402;2022-09-09T05:13:24;15.90;99.90
12013;DHT22;6065;48.138;16.402;2022-09-09T05:15:51;16.00;99.90
12013;DHT22;6065;48.138;16.402;2022-09-09T05:18:19;16.10;99.90
12013;DHT22;6065;48.138;16.402;2022-09-09T05:20:47;16.10;99.90
12013;DHT22;6065;48.138;16.402;2022-09-09T05:23:14;16.20;99.90
12013;DHT22;6065;48.138;16.402;2022-09-09T05:25:41;16.10;99.90
12013;DHT22;6065;48.138;16.402;2022-09-09T05:28:10;16.10;99.90
12013;DHT22;6065;48.138;16.402;2022-09-09T05:30:36;16.20;99.90
12013;DHT22;6065;48.138;16.402;2022-09-09T05:33:03;16.20;99.90
12013;DHT22;6065;48.138;16.402;2022-09-09T05:35:31;16.30;99.90
12013;DHT22;6065;48.138;16.402;2022-09-09T05:37:59;16.30;99.90
12013;DHT22;6065;48.138;16.402;2022-09-09T05:40:25;16.30;99.90
12013;DHT22;6065;48.138;16.402;2022-09-09T05:42:52;16.40;99.90
12013;DHT22;6065;48.138;16.402;2022-09-09T05:45:20;16.40;99.90
12013;DHT22;6065;48.138;16.402;2022-09-09T05:47:51;16.40;99.90
12013;DHT22;6065;48.138;16.402;2022-09-09T05:50:18;16.50;99.90
12013;DHT22;6065;48.138;16.402;2022-09-09T05:52:45;16.50;99.90
12013;DHT22;6065;48.138;16.402;2022-09-09T05:55:13;16.50;99.90
12013;DHT22;6065;48.138;16.402;2022-09-09T05:57:40;16.60;99.90
12013;DHT22;6065;48.138;16.402;2022-09-09T06:00:08;16.60;99.90
12013;DHT22;6065;48.138;16.402;2022-09-09T06:02:36;16.60;99.90
12013;DHT22;6065;48.138;16.402;2022-09-09T06:05:04;16.70;99.90
12013;DHT22;6065;48.138;16.402;2022-09-09T06:07:31;16.70;99.90
12013;DHT22;6065;48.138;16.402;2022-09-09T06:09:58;16.70;99.90
12013;DHT22;6065;48.138;16.402;2022-09-09T06:12:25;16.80;99.90
12013;DHT22;6065;48.138;16.402;2022-09-09T06:14:52;16.80;99.90
12013;DHT22;6065;48.138;16.402;2022-09-09T06:17:19;16.90;99.90
12013;DHT22;6065;48.138;16.402;2022-09-09T06:19:47;16.90;99.90
12013;DHT22;6065;48.138;16.402;2022-09-09T06:22:14;16.90;99.90
12013;DHT22;6065;48.138;16.402;2022-09-09T06:24:41;17.00;99.90
12013;DHT22;6065;48.138;16.402;2022-09-09T06:27:07;17.00;99.90
12013;DHT22;6065;48.138;16.402;2022-09-09T06:29:34;17.00;99.90
12013;DHT22;6065;48.138;16.402;2022-09-09T06:32:01;17.00;99.90
12013;DHT22;6065;48.138;16.402;2022-09-09T06:34:28;17.10;99.90
12013;DHT22;6065;48.138;16.402;2022-09-09T06:36:56;17.10;99.90
12013;DHT22;6065;48.138;16.402;2022-09-09T06:39:23;17.20;99.90
12013;DHT22;6065;48.138;16.402;2022-09-09T06:41:51;17.20;99.90
12013;DHT22;6065;48.138;16.402;2022-09-09T06:44:18;17.30;99.90
12013;DHT22;6065;48.138;16.402;2022-09-09T06:46:45;17.30;99.90
12013;DHT22;6065;48.138;16.402;2022-09-09T06:49:13;17.30;99.90
12013;DHT22;6065;48.138;16.402;2022-09-09T06:51:40;17.30;99.90
12013;DHT22;6065;48.138;16.402;2022-09-09T06:54:09;17.20;99.90
12013;DHT22;6065;48.138;16.402;2022-09-09T06:56:37;17.30;99.90
12013;DHT22;6065;48.138;16.402;2022-09-09T06:59:06;17.30;99.90
12013;DHT22;6065;48.138;16.402;2022-09-09T07:01:34;17.30;99.90
12013;DHT22;6065;48.138;16.402;2022-09-09T07:04:02;17.40;99.90
12013;DHT22;6065;48.138;16.402;2022-09-09T07:06:29;17.50;99.90
12013;DHT22;6065;48.138;16.402;2022-09-09T07:08:57;17.60;99.90
12013;DHT22;6065;48.138;16.402;2022-09-09T07:11:26;17.70;99.90
12013;DHT22;6065;48.138;16.402;2022-09-09T07:13:54;17.80;99.90
12013;DHT22;6065;48.138;16.402;2022-09-09T07:16:21;17.90;99.90
12013;DHT22;6065;48.138;16.402;2022-09-09T07:18:48;18.00;99.90
12013;DHT22;6065;48.138;16.402;2022-09-09T07:21:16;18.10;99.90
12013;DHT22;6065;48.138;16.402;2022-09-09T07:23:42;18.20;99.90
12013;DHT22;6065;48.138;16.402;2022-09-09T07:26:09;18.20;99.90
12013;DHT22;6065;48.138;16.402;2022-09-09T07:28:38;18.30;99.90
12013;DHT22;6065;48.138;16.402;2022-09-09T07:31:05;18.40;99.90
12013;DHT22;6065;48.138;16.402;2022-09-09T07:33:33;18.40;99.90
12013;DHT22;6065;48.138;16.402;2022-09-09T07:36:04;18.50;99.90
12013;DHT22;6065;48.138;16.402;2022-09-09T07:38:31;18.60;99.90
12013;DHT22;6065;48.138;16.402;2022-09-09T07:41:02;18.70;99.90
12013;DHT22;6065;48.138;16.402;2022-09-09T07:43:29;18.70;99.90
12013;DHT22;6065;48.138;16.402;2022-09-09T07:45:58;18.70;99.90
12013;DHT22;6065;48.138;16.402;2022-09-09T07:48:25;18.70;99.90
12013;DHT22;6065;48.138;16.402;2022-09-09T07:50:52;18.70;99.90
12013;DHT22;6065;48.138;16.402;2022-09-09T07:53:20;18.80;99.90
12013;DHT22;6065;48.138;16.402;2022-09-09T07:55:48;18.80;99.90
12013;DHT22;6065;48.138;16.402;2022-09-09T07:58:14;18.80;99.90
12013;DHT22;6065;48.138;16.402;2022-09-09T08:00:41;18.80;99.90
12013;DHT22;6065;48.138;16.402;2022-09-09T08:03:10;18.90;99.90
12013;DHT22;6065;48.138;16.402;2022-09-09T08:05:37;18.90;99.90
12013;DHT22;6065;48.138;16.402;2022-09-09T08:08:04;18.90;99.90
12013;DHT22;6065;48.138;16.402;2022-09-09T08:10:31;18.90;99.90
12013;DHT22;6065;48.138;16.402;2022-09-09T08:12:58;18.90;99.90
12013;DHT22;6065;48.138;16.402;2022-09-09T08:15:25;18.90;99.90
12013;DHT22;6065;48.138;16.402;2022-09-09T08:17:51;19.00;99.90
12013;DHT22;6065;48.138;16.402;2022-09-09T08:20:19;19.00;99.90
12013;DHT22;6065;48.138;16.402;2022-09-09T08:22:48;19.00;99.90
12013;DHT22;6065;48.138;16.402;2022-09-09T08:25:15;19.10;99.90
12013;DHT22;6065;48.138;16.402;2022-09-09T08:27:42;19.20;99.90
12013;DHT22;6065;48.138;16.402;2022-09-09T08:30:09;19.30;99.90
12013;DHT22;6065;48.138;16.402;2022-09-09T08:32:36;19.40;99.90
12013;DHT22;6065;48.138;16.402;2022-09-09T08:35:03;19.40;99.90
12013;DHT22;6065;48.138;16.402;2022-09-09T08:37:31;19.50;99.90
12013;DHT22;6065;48.138;16.402;2022-09-09T08:39:57;19.60;99.90
12013;DHT22;6065;48.138;16.402;2022-09-09T08:42:28;19.70;99.90
12013;DHT22;6065;48.138;16.402;2022-09-09T08:47:42;19.90;99.90
12013;DHT22;6065;48.138;16.402;2022-09-09T08:50:17;20.00;99.90
12013;DHT22;6065;48.138;16.402;2022-09-09T08:52:51;20.00;99.90
12013;DHT22;6065;48.138;16.402;2022-09-09T08:55:20;20.10;99.90
12013;DHT22;6065;48.138;16.402;2022-09-09T08:57:49;20.20;99.90
12013;DHT22;6065;48.138;16.402;2022-09-09T09:00:16;20.30;99.90
12013;DHT22;6065;48.138;16.402;2022-09-09T09:02:45;20.30;99.90
12013;DHT22;6065;48.138;16.402;2022-09-09T09:05:17;20.40;99.90
12013;DHT22;6065;48.138;16.402;2022-09-09T09:07:50;20.50;99.90
12013;DHT22;6065;48.138;16.402;2022-09-09T09:10:21;20.70;99.90
12013;DHT22;6065;48.138;16.402;2022-09-09T09:12:51;20.80;99.90
12013;DHT22;6065;48.138;16.402;2022-09-09T09:15:21;21.00;99.90
12013;DHT22;6065;48.138;16.402;2022-09-09T09:17:49;21.00;99.90
12013;DHT22;6065;48.138;16.402;2022-09-09T09:20:16;21.10;99.90
12013;DHT22;6065;48.138;16.402;2022-09-09T09:22:47;21.20;99.90
12013;DHT22;6065;48.138;16.402;2022-09-09T09:25:16;21.20;99.90
12013;DHT22;6065;48.138;16.402;2022-09-09T09:27:45;21.30;99.90
12013;DHT22;6065;48.138;16.402;2022-09-09T09:30:14;21.30;99.90
12013;DHT22;6065;48.138;16.402;2022-09-09T09:32:42;21.30;99.90
12013;DHT22;6065;48.138;16.402;2022-09-09T09:35:11;21.20;99.90
12013;DHT22;6065;48.138;16.402;2022-09-09T09:37:39;21.20;99.90
12013;DHT22;6065;48.138;16.402;2022-09-09T09:40:07;21.30;99.90
12013;DHT22;6065;48.138;16.402;2022-09-09T09:42:38;21.30;99.90
12013;DHT22;6065;48.138;16.402;2022-09-09T09:45:14;21.30;99.90
12013;DHT22;6065;48.138;16.402;2022-09-09T09:47:44;21.40;99.90
12013;DHT22;6065;48.138;16.402;2022-09-09T09:50:15;21.50;99.90
12013;DHT22;6065;48.138;16.402;2022-09-09T09:52:42;21.70;99.90
12013;DHT22;6065;48.138;16.402;2022-09-09T09:55:19;21.70;99.90
12013;DHT22;6065;48.138;16.402;2022-09-09T09:57:47;21.80;99.90
12013;DHT22;6065;48.138;16.402;2022-09-09T10:00:15;21.90;99.90
12013;DHT22;6065;48.138;16.402;2022-09-09T10:02:43;22.00;99.90
12013;DHT22;6065;48.138;16.402;2022-09-09T10:05:13;22.00;99.90
12013;DHT22;6065;48.138;16.402;2022-09-09T10:07:40;21.90;99.90
12013;DHT22;6065;48.138;16.402;2022-09-09T10:10:10;21.90;99.90
12013;DHT22;6065;48.138;16.402;2022-09-09T10:12:41;21.90;99.90
12013;DHT22;6065;48.138;16.402;2022-09-09T10:15:18;21.90;99.90
12013;DHT22;6065;48.138;16.402;2022-09-09T10:17:49;21.90;99.90
12013;DHT22;6065;48.138;16.402;2022-09-09T10:20:23;22.00;99.90
12013;DHT22;6065;48.138;16.402;2022-09-09T10:22:57;22.20;99.90
12013;DHT22;6065;48.138;16.402;2022-09-09T10:25:33;22.30;99.60
12013;DHT22;6065;48.138;16.402;2022-09-09T10:30:49;22.20;99.20
12013;DHT22;6065;48.138;16.402;2022-09-09T10:33:20;22.20;99.10
12013;DHT22;6065;48.138;16.402;2022-09-09T10:35:53;22.10;99.50
12013;DHT22;6065;48.138;16.402;2022-09-09T10:38:24;22.10;99.90
12013;DHT22;6065;48.138;16.402;2022-09-09T10:41:13;22.20;99.90
12013;DHT22;6065;48.138;16.402;2022-09-09T10:43:48;22.30;99.90
12013;DHT22;6065;48.138;16.402;2022-09-09T10:46:20;22.30;99.90
12013;DHT22;6065;48.138;16.402;2022-09-09T10:48:54;22.40;99.90
12013;DHT22;6065;48.138;16.402;2022-09-09T10:51:28;22.60;99.90
12013;DHT22;6065;48.138;16.402;2022-09-09T10:54:01;22.70;99.90
12013;DHT22;6065;48.138;16.402;2022-09-09T10:56:31;22.70;99.90
12013;DHT22;6065;48.138;16.402;2022-09-09T10:59:00;22.80;99.70
12013;DHT22;6065;48.138;16.402;2022-09-09T11:01:30;22.80;99.90
12013;DHT22;6065;48.138;16.402;2022-09-09T11:04:00;22.80;99.70
12013;DHT22;6065;48.138;16.402;2022-09-09T11:06:28;22.80;99.90
12013;DHT22;6065;48.138;16.402;2022-09-09T11:08:57;22.80;99.70
12013;DHT22;6065;48.138;16.402;2022-09-09T11:11:27;22.80;99.20
12013;DHT22;6065;48.138;16.402;2022-09-09T11:13:55;22.80;99.30
12013;DHT22;6065;48.138;16.402;2022-09-09T11:16:27;22.80;99.20
12013;DHT22;6065;48.138;16.402;2022-09-09T11:18:59;22.80;99.30
12013;DHT22;6065;48.138;16.402;2022-09-09T11:21:28;22.80;99.40
12013;DHT22;6065;48.138;16.402;2022-09-09T11:23:57;22.80;99.50
12013;DHT22;6065;48.138;16.402;2022-09-09T11:26:28;22.80;99.50
12013;DHT22;6065;48.138;16.402;2022-09-09T11:28:59;22.80;99.30
12013;DHT22;6065;48.138;16.402;2022-09-09T11:31:35;22.90;98.80
12013;DHT22;6065;48.138;16.402;2022-09-09T11:34:16;23.00;98.60
12013;DHT22;6065;48.138;16.402;2022-09-09T11:42:15;23.00;99.10
12013;DHT22;6065;48.138;16.402;2022-09-09T11:44:42;23.10;96.90
12013;DHT22;6065;48.138;16.402;2022-09-09T11:47:22;23.10;95.90
12013;DHT22;6065;48.138;16.402;2022-09-09T11:50:06;23.10;96.40
12013;DHT22;6065;48.138;16.402;2022-09-09T11:52:36;23.10;96.30
12013;DHT22;6065;48.138;16.402;2022-09-09T11:55:08;23.20;96.40
12013;DHT22;6065;48.138;16.402;2022-09-09T11:57:36;23.20;96.40
12013;DHT22;6065;48.138;16.402;2022-09-09T12:00:03;23.30;97.10
12013;DHT22;6065;48.138;16.402;2022-09-09T12:02:30;23.40;97.20
12013;DHT22;6065;48.138;16.402;2022-09-09T12:04:59;23.40;97.10
12013;DHT22;6065;48.138;16.402;2022-09-09T12:07:34;23.50;96.60
12013;DHT22;6065;48.138;16.402;2022-09-09T12:10:04;23.60;97.10
12013;DHT22;6065;48.138;16.402;2022-09-09T12:12:32;23.70;97.80
12013;DHT22;6065;48.138;16.402;2022-09-09T12:15:02;23.80;97.50
12013;DHT22;6065;48.138;16.402;2022-09-09T12:17:30;23.90;98.10
12013;DHT22;6065;48.138;16.402;2022-09-09T12:20:02;24.00;97.40
12013;DHT22;6065;48.138;16.402;2022-09-09T12:22:34;24.00;96.60
12013;DHT22;6065;48.138;16.402;2022-09-09T12:25:03;24.10;96.70
12013;DHT22;6065;48.138;16.402;2022-09-09T12:27:33;24.10;96.60
12013;DHT22;6065;48.138;16.402;2022-09-09T12:30:03;24.10;96.80
12013;DHT22;6065;48.138;16.402;2022-09-09T12:32:30;24.10;96.60
12013;DHT22;6065;48.138;16.402;2022-09-09T12:34:58;24.00;96.40
12013;DHT22;6065;48.138;16.402;2022-09-09T12:37:29;23.90;96.60
12013;DHT22;6065;48.138;16.402;2022-09-09T12:39:57;23.90;96.60
12013;DHT22;6065;48.138;16.402;2022-09-09T12:42:24;23.80;96.20
12013;DHT22;6065;48.138;16.402;2022-09-09T12:44:52;23.80;96.30
12013;DHT22;6065;48.138;16.402;2022-09-09T12:47:19;23.70;96.60
12013;DHT22;6065;48.138;16.402;2022-09-09T12:49:47;23.70;96.90
12013;DHT22;6065;48.138;16.402;2022-09-09T12:52:16;23.70;96.90
12013;DHT22;6065;48.138;16.402;2022-09-09T12:54:46;23.70;96.90
12013;DHT22;6065;48.138;16.402;2022-09-09T12:57:13;23.70;97.00
12013;DHT22;6065;48.138;16.402;2022-09-09T12:59:41;23.60;97.20
12013;DHT22;6065;48.138;16.402;2022-09-09T13:02:11;23.60;97.20
12013;DHT22;6065;48.138;16.402;2022-09-09T13:04:43;23.60;97.80
12013;DHT22;6065;48.138;16.402;2022-09-09T13:07:12;23.60;97.70
12013;DHT22;6065;48.138;16.402;2022-09-09T13:09:41;23.60;97.50
12013;DHT22;6065;48.138;16.402;2022-09-09T13:12:11;23.60;97.30
12013;DHT22;6065;48.138;16.402;2022-09-09T13:14:39;23.50;97.10
12013;DHT22;6065;48.138;16.402;2022-09-09T13:17:06;23.50;96.80
12013;DHT22;6065;48.138;16.402;2022-09-09T13:19:35;23.50;96.70
12013;DHT22;6065;48.138;16.402;2022-09-09T13:22:11;23.50;96.50
12013;DHT22;6065;48.138;16.402;2022-09-09T13:24:38;23.40;96.60
12013;DHT22;6065;48.138;16.402;2022-09-09T13:29:52;23.40;96.50
12013;DHT22;6065;48.138;16.402;2022-09-09T13:32:20;23.40;96.50
12013;DHT22;6065;48.138;16.402;2022-09-09T13:34:50;23.40;96.90
12013;DHT22;6065;48.138;16.402;2022-09-09T13:37:19;23.40;96.90
12013;DHT22;6065;48.138;16.402;2022-09-09T13:39:50;23.30;96.90
12013;DHT22;6065;48.138;16.402;2022-09-09T13:42:21;23.30;96.90
12013;DHT22;6065;48.138;16.402;2022-09-09T13:44:52;23.30;96.60
12013;DHT22;6065;48.138;16.402;2022-09-09T13:47:19;23.30;96.60
12013;DHT22;6065;48.138;16.402;2022-09-09T13:49:46;23.20;96.10
12013;DHT22;6065;48.138;16.402;2022-09-09T13:52:14;23.20;96.10
12013;DHT22;6065;48.138;16.402;2022-09-09T13:54:42;23.20;96.10
12013;DHT22;6065;48.138;16.402;2022-09-09T13:57:14;23.10;96.10
12013;DHT22;6065;48.138;16.402;2022-09-09T13:59:41;23.10;96.20
12013;DHT22;6065;48.138;16.402;2022-09-09T14:02:09;23.10;96.40
12013;DHT22;6065;48.138;16.402;2022-09-09T14:04:36;23.10;96.40
12013;DHT22;6065;48.138;16.402;2022-09-09T14:07:03;23.10;96.60
12013;DHT22;6065;48.138;16.402;2022-09-09T14:09:30;23.00;96.70
12013;DHT22;6065;48.138;16.402;2022-09-09T14:11:56;23.00;96.60
12013;DHT22;6065;48.138;16.402;2022-09-09T14:14:23;23.00;96.60
12013;DHT22;6065;48.138;16.402;2022-09-09T14:16:50;23.00;96.60
12013;DHT22;6065;48.138;16.402;2022-09-09T14:19:18;23.00;96.70
12013;DHT22;6065;48.138;16.402;2022-09-09T14:21:45;23.00;96.60
12013;DHT22;6065;48.138;16.402;2022-09-09T14:24:11;23.00;96.40
12013;DHT22;6065;48.138;16.402;2022-09-09T14:26:39;22.90;96.30
12013;DHT22;6065;48.138;16.402;2022-09-09T14:29:06;22.90;96.00
12013;DHT22;6065;48.138;16.402;2022-09-09T14:31:32;22.90;95.90
12013;DHT22;6065;48.138;16.402;2022-09-09T14:33:59;22.90;95.90
12013;DHT22;6065;48.138;16.402;2022-09-09T14:36:27;22.90;96.10
12013;DHT22;6065;48.138;16.402;2022-09-09T14:38:54;22.90;95.80
12013;DHT22;6065;48.138;16.402;2022-09-09T14:41:21;22.90;95.90
12013;DHT22;6065;48.138;16.402;2022-09-09T14:43:48;22.80;97.10
12013;DHT22;6065;48.138;16.402;2022-09-09T14:46:16;22.80;97.80
12013;DHT22;6065;48.138;16.402;2022-09-09T14:48:43;22.80;98.40
12013;DHT22;6065;48.138;16.402;2022-09-09T14:51:11;22.70;99.40
12013;DHT22;6065;48.138;16.402;2022-09-09T14:53:41;22.60;99.90
12013;DHT22;6065;48.138;16.402;2022-09-09T14:56:09;22.60;99.90
12013;DHT22;6065;48.138;16.402;2022-09-09T14:58:36;22.50;99.90
12013;DHT22;6065;48.138;16.402;2022-09-09T15:01:04;22.40;99.90
12013;DHT22;6065;48.138;16.402;2022-09-09T15:03:31;22.40;99.90
12013;DHT22;6065;48.138;16.402;2022-09-09T15:05:58;22.30;99.90
12013;DHT22;6065;48.138;16.402;2022-09-09T15:08:30;22.30;99.90
12013;DHT22;6065;48.138;16.402;2022-09-09T15:11:00;22.30;99.90
12013;DHT22;6065;48.138;16.402;2022-09-09T15:13:27;22.30;99.90
12013;DHT22;6065;48.138;16.402;2022-09-09T15:15:54;22.30;99.90
12013;DHT22;6065;48.138;16.402;2022-09-09T15:18:21;22.30;99.90
12013;DHT22;6065;48.138;16.402;2022-09-09T15:20:47;22.30;99.90
12013;DHT22;6065;48.138;16.402;2022-09-09T15:23:14;22.30;99.90
12013;DHT22;6065;48.138;16.402;2022-09-09T15:25:49;22.30;99.90
12013;DHT22;6065;48.138;16.402;2022-09-09T15:28:18;22.30;99.90
12013;DHT22;6065;48.138;16.402;2022-09-09T15:30:47;22.20;99.90
12013;DHT22;6065;48.138;16.402;2022-09-09T15:33:13;22.30;99.90
12013;DHT22;6065;48.138;16.402;2022-09-09T15:35:40;22.20;99.90
12013;DHT22;6065;48.138;16.402;2022-09-09T15:38:07;22.20;99.90
12013;DHT22;6065;48.138;16.402;2022-09-09T15:40:33;22.20;99.90
12013;DHT22;6065;48.138;16.402;2022-09-09T15:43:00;22.20;99.90
12013;DHT22;6065;48.138;16.402;2022-09-09T15:45:28;22.20;99.90
12013;DHT22;6065;48.138;16.402;2022-09-09T15:47:57;22.10;99.90
12013;DHT22;6065;48.138;16.402;2022-09-09T15:50:24;22.10;99.90
12013;DHT22;6065;48.138;16.402;2022-09-09T15:52:51;22.10;99.90
12013;DHT22;6065;48.138;16.402;2022-09-09T15:55:18;22.10;99.90